Time;durP1;ratioP1;P1;durP2;ratioP2;P2;SDS_P1;SDS_P2;PMS_P1;PMS_P2;Temp;Humidity;BMP_temperature;BMP_pressure;BME280_temperature;BME280_humidity;BME280_pressure;Samples;Min_cycle;Max_cycle;Signal;HPM_P1;HPM_P2
2023/04/26 00:00:41;;;;;;;17.15;5.50;;;;;;;;;;5054478;28;20948;-66
2023/04/26 00:03:06;;;;;;;12.63;5.35;;;;;;;;;;5047660;28;20024;-66
2023/04/26 00:05:32;;;;;;;17.38;6.25;;;;;;;;;;5035774;28;20086;-66
2023/04/26 00:07:57;;;;;;;14.95;5.95;;;;;;;;;;5045167;28;20886;-67
2023/04/26 00:10:22;;;;;;;13.95;6.28;;;;;;;;;;5045615;28;20832;-68
2023/04/26 00:12:47;;;;;;;9.63;6.28;;;;;;;;;;5041358;28;20051;-67
2023/04/26 00:15:13;;;;;;;17.70;6.47;;;;;;;;;;5035537;28;20035;-67
2023/04/26 00:17:38;;;;;;;9.57;5.85;;;;;;;;;;5045763;28;20035;-67
2023/04/26 00:20:06;;;;;;;10.32;6.28;;;;;;;;;;5048423;28;20016;-67
2023/04/26 00:22:31;;;;;;;17.25;5.70;;;;;;;;;;5043191;28;20032;-68
2023/04/26 00:24:58;;;;;;;14.13;6.20;;;;;;;;;;5033042;28;20024;-67
2023/04/26 00:27:23;;;;;;;11.45;5.65;;;;;;;;;;5041024;28;20028;-67
2023/04/26 00:29:48;;;;;;;14.95;5.85;;;;;;;;;;5044861;28;20024;-67
2023/04/26 00:32:13;;;;;;;8.95;5.25;;;;;;;;;;5051252;28;20143;-68
2023/04/26 00:34:39;;;;;;;11.32;5.70;;;;;;;;;;5045618;28;20923;-68
2023/04/26 00:37:04;;;;;;;10.50;5.63;;;;;;;;;;5035801;28;20833;-67
2023/04/26 00:39:30;;;;;;;15.50;5.70;;;;;;;;;;5047518;28;20247;-66
2023/04/26 00:41:55;;;;;;;11.18;5.63;;;;;;;;;;5047968;28;20751;-66
2023/04/26 00:44:21;;;;;;;11.45;5.65;;;;;;;;;;5041474;28;20016;-66
2023/04/26 00:46:47;;;;;;;10.70;5.35;;;;;;;;;;5051335;28;20024;-66
2023/04/26 00:49:14;;;;;;;12.23;5.28;;;;;;;;;;5049869;28;20027;-66
2023/04/26 00:51:40;;;;;;;11.25;5.15;;;;;;;;;;5047037;28;20028;-66
2023/04/26 00:54:05;;;;;;;10.73;5.57;;;;;;;;;;5041190;28;20024;-66
2023/04/26 00:56:31;;;;;;;10.60;5.30;;;;;;;;;;5064275;28;20024;-66
2023/04/26 00:58:56;;;;;;;15.95;5.50;;;;;;;;;;5049198;28;20039;-66
2023/04/26 01:01:21;;;;;;;11.90;5.38;;;;;;;;;;5047630;28;20040;-66
2023/04/26 01:03:47;;;;;;;17.92;5.68;;;;;;;;;;5045169;28;20028;-66
2023/04/26 01:06:13;;;;;;;12.85;5.50;;;;;;;;;;5048812;28;20031;-66
2023/04/26 01:08:38;;;;;;;14.77;5.10;;;;;;;;;;5046091;28;20026;-66
2023/04/26 01:11:03;;;;;;;15.25;6.72;;;;;;;;;;5044904;28;20193;-66
2023/04/26 01:13:30;;;;;;;14.23;6.15;;;;;;;;;;5045920;28;20032;-66
2023/04/26 01:15:56;;;;;;;14.02;5.55;;;;;;;;;;5044288;28;20056;-66
2023/04/26 01:18:21;;;;;;;14.20;5.90;;;;;;;;;;5044166;28;20028;-66
2023/04/26 01:20:47;;;;;;;11.25;5.78;;;;;;;;;;5042229;28;20035;-66
2023/04/26 01:23:12;;;;;;;10.35;5.80;;;;;;;;;;5049245;28;20020;-66
2023/04/26 01:25:38;;;;;;;10.55;5.82;;;;;;;;;;5044128;28;20928;-66
2023/04/26 01:28:03;;;;;;;11.68;5.60;;;;;;;;;;5040926;28;20089;-66
2023/04/26 01:30:28;;;;;;;13.40;5.95;;;;;;;;;;5045709;28;20024;-66
2023/04/26 01:32:54;;;;;;;12.68;6.18;;;;;;;;;;5036778;28;20059;-66
2023/04/26 01:35:19;;;;;;;15.88;5.85;;;;;;;;;;5052163;28;20801;-65
2023/04/26 01:37:45;;;;;;;14.40;6.47;;;;;;;;;;5047557;28;20137;-66
2023/04/26 01:40:10;;;;;;;14.60;5.63;;;;;;;;;;5044229;28;20958;-66
2023/04/26 01:42:35;;;;;;;12.85;5.78;;;;;;;;;;5044319;28;20024;-66
2023/04/26 01:45:01;;;;;;;14.50;5.93;;;;;;;;;;5043591;28;20029;-66
2023/04/26 01:47:26;;;;;;;14.32;6.45;;;;;;;;;;5044201;28;20070;-66
2023/04/26 01:49:51;;;;;;;11.98;6.28;;;;;;;;;;5047263;28;20333;-66
2023/04/26 01:52:17;;;;;;;13.05;5.20;;;;;;;;;;5046302;28;20884;-66
2023/04/26 01:54:42;;;;;;;11.00;5.50;;;;;;;;;;5042776;28;20024;-66
2023/04/26 01:57:07;;;;;;;10.13;5.55;;;;;;;;;;5045595;28;20027;-66
2023/04/26 01:59:33;;;;;;;14.13;6.18;;;;;;;;;;5038355;28;20031;-66
2023/04/26 02:01:58;;;;;;;10.35;5.85;;;;;;;;;;5037179;28;20075;-66
2023/04/26 02:04:24;;;;;;;12.65;6.00;;;;;;;;;;5045395;28;20898;-66
2023/04/26 02:06:49;;;;;;;10.15;6.47;;;;;;;;;;5041218;28;20957;-66
2023/04/26 02:09:14;;;;;;;18.25;6.22;;;;;;;;;;5037706;28;20035;-67
2023/04/26 02:11:40;;;;;;;11.23;5.90;;;;;;;;;;5043276;28;20023;-66
2023/04/26 02:14:05;;;;;;;15.00;5.75;;;;;;;;;;5043845;28;20119;-66
2023/04/26 02:16:31;;;;;;;10.98;6.47;;;;;;;;;;5037757;28;20026;-66
2023/04/26 02:18:58;;;;;;;12.00;6.03;;;;;;;;;;5038722;28;21053;-66
2023/04/26 02:21:23;;;;;;;13.20;5.93;;;;;;;;;;5045597;28;20024;-66
2023/04/26 02:23:48;;;;;;;16.60;5.50;;;;;;;;;;5049906;28;20851;-66
2023/04/26 02:26:14;;;;;;;13.45;5.97;;;;;;;;;;5052408;28;20625;-66
2023/04/26 02:28:39;;;;;;;12.73;6.30;;;;;;;;;;5061151;28;20074;-66
2023/04/26 02:31:05;;;;;;;11.95;5.93;;;;;;;;;;5031898;28;20087;-66
2023/04/26 02:33:30;;;;;;;12.43;5.95;;;;;;;;;;5040101;28;20016;-66
2023/04/26 02:35:55;;;;;;;14.32;6.45;;;;;;;;;;5045126;28;20028;-66
2023/04/26 02:38:21;;;;;;;12.05;5.13;;;;;;;;;;5043845;28;20024;-66
2023/04/26 02:40:46;;;;;;;14.38;6.25;;;;;;;;;;5040862;28;20861;-66
2023/04/26 02:43:11;;;;;;;16.08;6.10;;;;;;;;;;5037139;28;20067;-66
2023/04/26 02:45:39;;;;;;;16.15;6.43;;;;;;;;;;5045518;28;20039;-66
2023/04/26 02:48:05;;;;;;;19.38;6.35;;;;;;;;;;5037990;28;20032;-66
2023/04/26 02:50:30;;;;;;;12.32;6.10;;;;;;;;;;5026968;28;20052;-66
2023/04/26 02:52:55;;;;;;;13.10;6.32;;;;;;;;;;5043638;28;20052;-66
2023/04/26 02:55:20;;;;;;;11.90;6.60;;;;;;;;;;5043344;28;20944;-65
2023/04/26 02:57:46;;;;;;;11.50;6.07;;;;;;;;;;5051879;28;20859;-65
2023/04/26 03:00:12;;;;;;;12.50;6.30;;;;;;;;;;5047098;28;20442;-67
2023/04/26 03:02:38;;;;;;;11.68;6.32;;;;;;;;;;5052680;28;20024;-66
2023/04/26 03:05:03;;;;;;;11.43;6.13;;;;;;;;;;5041969;28;20166;-66
2023/04/26 03:07:28;;;;;;;14.38;6.25;;;;;;;;;;5027221;28;20923;-67
2023/04/26 03:09:54;;;;;;;11.30;6.65;;;;;;;;;;5036426;28;20529;-66
2023/04/26 03:12:19;;;;;;;13.50;6.35;;;;;;;;;;5044384;28;20136;-67
2023/04/26 03:14:44;;;;;;;12.27;6.13;;;;;;;;;;5045352;28;20020;-67
2023/04/26 03:17:10;;;;;;;14.25;6.43;;;;;;;;;;5042267;28;20091;-66
2023/04/26 03:19:35;;;;;;;12.25;6.72;;;;;;;;;;5037193;28;20090;-66
2023/04/26 03:22:00;;;;;;;11.23;5.78;;;;;;;;;;5043921;28;20563;-67
2023/04/26 03:24:26;;;;;;;11.40;5.57;;;;;;;;;;5042699;28;20102;-67
2023/04/26 03:26:51;;;;;;;13.18;6.15;;;;;;;;;;5049293;28;20897;-67
2023/04/26 03:29:16;;;;;;;13.32;6.45;;;;;;;;;;5040311;28;20858;-67
2023/04/26 03:31:42;;;;;;;13.00;6.93;;;;;;;;;;5054577;28;20079;-66
2023/04/26 03:34:07;;;;;;;13.60;7.05;;;;;;;;;;5032000;28;20029;-67
2023/04/26 03:36:33;;;;;;;10.65;6.60;;;;;;;;;;5038041;28;20871;-67
2023/04/26 03:38:58;;;;;;;20.05;7.75;;;;;;;;;;5045101;28;20040;-66
2023/04/26 03:41:23;;;;;;;15.48;6.90;;;;;;;;;;5047676;28;20027;-66
2023/04/26 03:43:49;;;;;;;18.83;7.22;;;;;;;;;;5032530;28;20831;-67
2023/04/26 03:46:14;;;;;;;14.18;7.22;;;;;;;;;;5044263;28;20056;-66
2023/04/26 03:48:40;;;;;;;15.30;7.20;;;;;;;;;;5051747;28;20076;-67
2023/04/26 03:51:05;;;;;;;14.95;7.10;;;;;;;;;;5040163;28;20517;-67
2023/04/26 03:53:31;;;;;;;11.77;6.45;;;;;;;;;;5044620;28;20062;-66
2023/04/26 03:55:56;;;;;;;13.90;6.47;;;;;;;;;;5044748;28;20883;-67
2023/04/26 03:58:22;;;;;;;10.48;6.18;;;;;;;;;;5043264;28;20892;-66
2023/04/26 04:00:47;;;;;;;9.45;6.18;;;;;;;;;;5043317;28;20143;-66
2023/04/26 04:03:12;;;;;;;13.50;6.18;;;;;;;;;;5051462;28;20047;-66
2023/04/26 04:05:38;;;;;;;12.10;7.13;;;;;;;;;;5043397;28;20881;-66
2023/04/26 04:08:03;;;;;;;13.13;7.53;;;;;;;;;;5052214;28;20130;-66
2023/04/26 04:10:28;;;;;;;13.82;6.78;;;;;;;;;;5039513;28;20075;-67
2023/04/26 04:12:54;;;;;;;17.92;7.20;;;;;;;;;;5052965;28;20032;-67
2023/04/26 04:15:19;;;;;;;15.02;7.95;;;;;;;;;;5058489;28;20946;-66
2023/04/26 04:17:45;;;;;;;13.98;6.75;;;;;;;;;;5060587;28;20803;-67
2023/04/26 04:20:10;;;;;;;12.77;7.40;;;;;;;;;;5048588;28;20075;-67
2023/04/26 04:22:37;;;;;;;20.40;8.00;;;;;;;;;;5046784;28;20561;-66
2023/04/26 04:25:04;;;;;;;14.05;7.20;;;;;;;;;;5053642;28;20016;-67
2023/04/26 04:27:30;;;;;;;14.90;7.25;;;;;;;;;;5046554;28;20150;-66
2023/04/26 04:29:56;;;;;;;12.18;7.97;;;;;;;;;;5047072;28;20039;-66
2023/04/26 04:32:22;;;;;;;14.63;6.82;;;;;;;;;;5046796;28;20123;-66
2023/04/26 04:34:48;;;;;;;18.25;7.70;;;;;;;;;;5043435;28;20029;-66
2023/04/26 04:37:13;;;;;;;16.70;7.28;;;;;;;;;;5033875;28;20901;-66
2023/04/26 04:39:38;;;;;;;16.30;7.45;;;;;;;;;;5035518;28;20039;-66
2023/04/26 04:42:04;;;;;;;12.20;6.72;;;;;;;;;;5048945;28;20094;-66
2023/04/26 04:44:30;;;;;;;11.07;7.47;;;;;;;;;;5047737;28;20898;-66
2023/04/26 04:46:55;;;;;;;13.90;6.68;;;;;;;;;;5043484;28;20916;-67
2023/04/26 04:49:21;;;;;;;18.13;9.43;;;;;;;;;;5042504;28;20012;-67
2023/04/26 04:51:46;;;;;;;18.33;8.55;;;;;;;;;;5049330;28;20142;-67
2023/04/26 04:54:12;;;;;;;14.27;8.52;;;;;;;;;;5039068;28;20941;-67
2023/04/26 04:56:37;;;;;;;15.73;9.23;;;;;;;;;;5049468;28;20028;-66
2023/04/26 04:59:03;;;;;;;20.10;11.35;;;;;;;;;;5047217;28;20067;-66
2023/04/26 05:01:29;;;;;;;17.55;9.98;;;;;;;;;;5047747;28;20049;-66
2023/04/26 05:03:55;;;;;;;19.88;11.07;;;;;;;;;;5043950;28;20084;-66
2023/04/26 05:06:21;;;;;;;22.25;11.05;;;;;;;;;;5047444;28;20112;-66
2023/04/26 05:08:46;;;;;;;25.08;10.65;;;;;;;;;;5044827;28;20077;-66
2023/04/26 05:11:11;;;;;;;19.90;10.77;;;;;;;;;;5043294;28;20032;-66
2023/04/26 05:13:37;;;;;;;19.48;11.27;;;;;;;;;;5045583;28;20048;-66
2023/04/26 05:16:02;;;;;;;20.67;10.23;;;;;;;;;;5046453;28;20894;-66
2023/04/26 05:18:27;;;;;;;18.70;10.48;;;;;;;;;;5046112;28;20147;-66
2023/04/26 05:20:52;;;;;;;16.95;10.35;;;;;;;;;;5047220;28;20564;-66
2023/04/26 05:23:18;;;;;;;23.90;11.07;;;;;;;;;;5030918;28;20271;-67
2023/04/26 05:25:43;;;;;;;21.05;10.70;;;;;;;;;;5047016;28;20020;-67
2023/04/26 05:28:11;;;;;;;16.15;10.80;;;;;;;;;;5042644;28;20024;-67
2023/04/26 05:30:37;;;;;;;16.90;9.98;;;;;;;;;;5043872;28;20036;-67
2023/04/26 05:33:02;;;;;;;16.48;9.68;;;;;;;;;;5044641;28;20024;-67
2023/04/26 05:35:27;;;;;;;22.70;9.85;;;;;;;;;;5043463;28;20127;-67
2023/04/26 05:37:53;;;;;;;21.42;10.63;;;;;;;;;;5044111;28;20032;-66
2023/04/26 05:40:18;;;;;;;19.63;11.45;;;;;;;;;;5045611;28;20024;-67
2023/04/26 05:42:43;;;;;;;23.23;11.90;;;;;;;;;;5044804;28;20058;-69
2023/04/26 05:45:09;;;;;;;19.02;12.40;;;;;;;;;;5033278;28;20040;-66
2023/04/26 05:47:34;;;;;;;21.38;11.65;;;;;;;;;;5051878;28;20024;-67
2023/04/26 05:49:59;;;;;;;20.38;11.00;;;;;;;;;;5039986;28;20090;-67
2023/04/26 05:52:25;;;;;;;21.15;11.40;;;;;;;;;;5045086;28;20027;-67
2023/04/26 05:54:50;;;;;;;18.67;12.18;;;;;;;;;;5039188;28;20525;-67
2023/04/26 05:57:16;;;;;;;32.40;12.52;;;;;;;;;;5048389;28;20089;-67
2023/04/26 05:59:43;;;;;;;21.30;12.40;;;;;;;;;;5044028;28;20031;-67
2023/04/26 06:02:08;;;;;;;19.40;12.20;;;;;;;;;;5055687;28;20169;-66
2023/04/26 06:04:33;;;;;;;25.13;13.52;;;;;;;;;;5056623;28;20030;-67
2023/04/26 06:06:59;;;;;;;22.95;13.20;;;;;;;;;;5051752;28;20052;-67
2023/04/26 06:09:25;;;;;;;24.95;12.93;;;;;;;;;;5050574;28;20850;-66
2023/04/26 06:11:50;;;;;;;24.67;13.85;;;;;;;;;;5037758;28;20035;-67
2023/04/26 06:14:15;;;;;;;26.52;13.90;;;;;;;;;;5043199;28;20053;-67
2023/04/26 06:16:40;;;;;;;20.20;13.90;;;;;;;;;;5046346;28;20077;-67
2023/04/26 06:19:06;;;;;;;19.13;13.63;;;;;;;;;;5043972;28;20805;-66
2023/04/26 06:21:31;;;;;;;18.92;13.77;;;;;;;;;;5046085;28;20078;-67
2023/04/26 06:23:57;;;;;;;27.80;14.50;;;;;;;;;;5043430;28;20798;-66
2023/04/26 06:26:22;;;;;;;24.05;14.52;;;;;;;;;;5058286;28;20031;-67
2023/04/26 06:28:48;;;;;;;24.27;13.00;;;;;;;;;;5045179;28;20126;-66
2023/04/26 06:31:14;;;;;;;16.88;12.23;;;;;;;;;;5054235;28;20093;-66
2023/04/26 06:33:39;;;;;;;28.10;14.35;;;;;;;;;;5048369;28;20027;-66
2023/04/26 06:36:04;;;;;;;24.00;14.80;;;;;;;;;;5037719;28;20025;-67
2023/04/26 06:38:29;;;;;;;31.75;16.02;;;;;;;;;;5044314;28;20036;-67
2023/04/26 06:40:55;;;;;;;31.02;14.70;;;;;;;;;;5049070;28;20472;-67
2023/04/26 06:43:20;;;;;;;23.35;14.27;;;;;;;;;;5043469;28;20777;-66
2023/04/26 06:45:45;;;;;;;26.20;14.00;;;;;;;;;;5048899;28;20028;-66
2023/04/26 06:48:11;;;;;;;25.10;12.75;;;;;;;;;;5044222;28;20810;-66
2023/04/26 06:50:40;;;;;;;34.30;13.65;;;;;;;;;;5042441;28;20085;-67
2023/04/26 06:53:05;;;;;;;26.23;13.32;;;;;;;;;;5043121;28;20030;-67
2023/04/26 06:55:31;;;;;;;30.35;13.95;;;;;;;;;;5050456;28;20873;-66
2023/04/26 06:57:56;;;;;;;17.00;11.88;;;;;;;;;;5047308;28;20044;-67
2023/04/26 07:00:21;;;;;;;22.05;12.27;;;;;;;;;;5048737;28;20027;-67
2023/04/26 07:02:46;;;;;;;24.60;11.27;;;;;;;;;;5051015;28;20024;-67
2023/04/26 07:05:13;;;;;;;19.85;11.50;;;;;;;;;;5045664;28;20081;-65
2023/04/26 07:07:38;;;;;;;18.35;9.73;;;;;;;;;;5050527;28;20016;-65
2023/04/26 07:10:04;;;;;;;18.75;10.00;;;;;;;;;;5042584;28;20344;-65
2023/04/26 07:12:29;;;;;;;16.58;7.93;;;;;;;;;;5044493;28;20024;-65
2023/04/26 07:14:55;;;;;;;19.33;8.40;;;;;;;;;;5042832;28;20130;-66
2023/04/26 07:17:21;;;;;;;16.17;7.43;;;;;;;;;;5044958;28;20902;-67
2023/04/26 07:19:46;;;;;;;13.73;6.55;;;;;;;;;;5040758;28;20032;-67
2023/04/26 07:22:11;;;;;;;19.33;7.28;;;;;;;;;;5038449;28;20042;-67
2023/04/26 07:24:36;;;;;;;17.10;7.80;;;;;;;;;;5056078;28;20038;-67
2023/04/26 07:27:02;;;;;;;13.18;6.97;;;;;;;;;;5043590;28;20033;-67
2023/04/26 07:29:27;;;;;;;19.73;7.53;;;;;;;;;;5059651;28;20024;-67
2023/04/26 07:31:53;;;;;;;16.60;7.63;;;;;;;;;;5046261;28;20024;-67
2023/04/26 07:34:18;;;;;;;17.92;8.05;;;;;;;;;;5056402;28;20115;-66
2023/04/26 07:36:43;;;;;;;17.80;7.13;;;;;;;;;;5052759;28;20421;-67
2023/04/26 07:39:09;;;;;;;11.07;6.22;;;;;;;;;;5050810;28;20797;-68
2023/04/26 07:41:35;;;;;;;15.85;6.53;;;;;;;;;;5038170;28;20024;-67
2023/04/26 07:44:00;;;;;;;10.38;5.20;;;;;;;;;;5036293;28;20131;-66
2023/04/26 07:46:25;;;;;;;11.98;4.97;;;;;;;;;;5045790;28;20020;-68
2023/04/26 07:48:50;;;;;;;8.25;3.83;;;;;;;;;;5038706;28;20028;-66
2023/04/26 07:51:16;;;;;;;15.65;5.38;;;;;;;;;;5040816;28;20105;-66
2023/04/26 07:53:41;;;;;;;17.50;5.75;;;;;;;;;;5045642;28;20866;-65
2023/04/26 07:56:07;;;;;;;10.50;4.53;;;;;;;;;;5055772;28;20036;-68
2023/04/26 07:58:32;;;;;;;18.38;3.67;;;;;;;;;;5034693;28;20782;-66
2023/04/26 08:00:58;;;;;;;8.20;3.92;;;;;;;;;;5046785;28;20075;-66
2023/04/26 08:03:23;;;;;;;7.32;3.30;;;;;;;;;;5067296;28;20070;-66
2023/04/26 08:05:49;;;;;;;6.45;3.38;;;;;;;;;;5043683;28;20507;-66
2023/04/26 08:08:14;;;;;;;10.18;4.20;;;;;;;;;;5047323;28;20027;-67
2023/04/26 08:10:40;;;;;;;11.32;4.68;;;;;;;;;;5047718;28;20035;-67
2023/04/26 08:13:05;;;;;;;9.07;4.18;;;;;;;;;;5046937;28;20052;-65
2023/04/26 08:15:31;;;;;;;9.73;4.00;;;;;;;;;;5047307;28;20032;-66
2023/04/26 08:17:56;;;;;;;12.43;4.35;;;;;;;;;;5041005;28;20026;-66
2023/04/26 08:20:22;;;;;;;13.10;4.30;;;;;;;;;;5038179;28;20020;-66
2023/04/26 08:22:47;;;;;;;7.80;3.55;;;;;;;;;;5045731;28;20059;-66
2023/04/26 08:25:12;;;;;;;9.88;3.40;;;;;;;;;;5044758;28;20028;-67
2023/04/26 08:27:38;;;;;;;11.15;3.58;;;;;;;;;;5045240;28;20028;-67
2023/04/26 08:30:04;;;;;;;7.60;2.70;;;;;;;;;;5044581;28;20024;-67
2023/04/26 08:32:29;;;;;;;8.65;2.95;;;;;;;;;;5027458;28;20032;-67
2023/04/26 08:34:55;;;;;;;5.82;2.50;;;;;;;;;;5047556;28;20052;-67
2023/04/26 08:37:20;;;;;;;8.75;3.70;;;;;;;;;;5044551;28;20082;-67
2023/04/26 08:39:45;;;;;;;12.68;4.70;;;;;;;;;;5038532;28;20894;-67
2023/04/26 08:42:15;;;;;;;10.57;3.95;;;;;;;;;;5038141;28;20470;-67
2023/04/26 08:44:40;;;;;;;8.93;4.57;;;;;;;;;;5048886;28;20077;-67
2023/04/26 08:47:08;;;;;;;8.07;4.18;;;;;;;;;;5051257;28;20034;-67
2023/04/26 08:49:41;;;;;;;7.20;4.10;;;;;;;;;;5051608;28;20027;-67
2023/04/26 08:52:11;;;;;;;8.52;3.85;;;;;;;;;;5046049;28;20168;-67
2023/04/26 08:54:38;;;;;;;9.82;4.22;;;;;;;;;;5036919;28;20077;-66
2023/04/26 08:57:03;;;;;;;6.57;3.30;;;;;;;;;;5045600;28;20125;-67
2023/04/26 08:59:29;;;;;;;7.75;3.63;;;;;;;;;;5056385;28;20912;-67
2023/04/26 09:01:55;;;;;;;8.75;4.25;;;;;;;;;;5042255;28;20028;-67
2023/04/26 09:04:21;;;;;;;12.93;4.30;;;;;;;;;;5044764;28;20082;-67
2023/04/26 09:06:48;;;;;;;5.57;3.40;;;;;;;;;;5044775;28;20144;-65
2023/04/26 09:09:17;;;;;;;11.40;3.80;;;;;;;;;;5046368;28;20020;-66
2023/04/26 09:11:52;;;;;;;7.65;3.25;;;;;;;;;;5045254;28;20027;-66
2023/04/26 09:14:18;;;;;;;6.97;3.70;;;;;;;;;;5039212;28;20082;-66
2023/04/26 09:16:43;;;;;;;10.50;3.67;;;;;;;;;;5045678;28;20028;-66
2023/04/26 09:19:09;;;;;;;6.70;3.20;;;;;;;;;;5044747;28;20028;-66
2023/04/26 09:21:41;;;;;;;6.72;2.90;;;;;;;;;;5041166;28;20811;-66
2023/04/26 09:24:06;;;;;;;7.32;2.22;;;;;;;;;;5038000;28;20035;-66
2023/04/26 09:26:32;;;;;;;8.43;2.75;;;;;;;;;;5048705;28;20043;-66
2023/04/26 09:29:16;;;;;;;6.95;2.60;;;;;;;;;;5026697;28;20020;-68
2023/04/26 09:31:46;;;;;;;5.25;2.90;;;;;;;;;;5045555;28;20289;-66
2023/04/26 09:34:12;;;;;;;6.80;2.47;;;;;;;;;;5048111;28;20024;-66
2023/04/26 09:36:55;;;;;;;4.65;1.98;;;;;;;;;;5041089;28;20949;-66
2023/04/26 09:39:36;;;;;;;10.73;2.70;;;;;;;;;;5042351;28;20024;-66
2023/04/26 09:42:02;;;;;;;9.20;2.78;;;;;;;;;;5025228;28;20761;-66
2023/04/26 09:44:28;;;;;;;6.05;2.05;;;;;;;;;;5042512;28;20356;-67
2023/04/26 09:46:57;;;;;;;8.80;2.78;;;;;;;;;;5037741;28;20029;-67
2023/04/26 09:49:24;;;;;;;10.10;2.72;;;;;;;;;;5045250;28;20027;-67
2023/04/26 09:52:02;;;;;;;12.18;2.30;;;;;;;;;;5037423;28;20925;-67
2023/04/26 09:54:41;;;;;;;6.20;2.00;;;;;;;;;;5045646;28;20023;-67
2023/04/26 09:57:06;;;;;;;4.07;1.73;;;;;;;;;;5044203;28;20028;-67
2023/04/26 09:59:43;;;;;;;4.38;1.98;;;;;;;;;;5042892;28;20852;-67
2023/04/26 10:02:13;;;;;;;6.18;2.50;;;;;;;;;;5042754;28;20098;-66
2023/04/26 10:04:38;;;;;;;6.60;2.60;;;;;;;;;;5044576;28;20050;-66
2023/04/26 10:07:04;;;;;;;4.97;2.35;;;;;;;;;;5043402;28;20782;-66
2023/04/26 10:09:30;;;;;;;3.97;2.20;;;;;;;;;;5055221;28;20027;-67
2023/04/26 10:11:57;;;;;;;5.43;2.40;;;;;;;;;;5045015;28;20066;-66
2023/04/26 10:14:22;;;;;;;5.28;2.15;;;;;;;;;;5045092;28;20016;-66
2023/04/26 10:16:48;;;;;;;5.95;2.72;;;;;;;;;;5049108;28;20997;-66
2023/04/26 10:19:13;;;;;;;11.20;2.95;;;;;;;;;;5043218;28;20866;-66
2023/04/26 10:21:40;;;;;;;4.50;2.67;;;;;;;;;;5044902;28;20024;-66
2023/04/26 10:24:05;;;;;;;6.72;2.78;;;;;;;;;;5044635;28;20059;-66
2023/04/26 10:26:54;;;;;;;10.32;3.17;;;;;;;;;;5054640;28;20020;-66
2023/04/26 10:29:20;;;;;;;5.25;3.03;;;;;;;;;;5065352;28;20032;-66
2023/04/26 10:32:00;;;;;;;8.30;2.42;;;;;;;;;;5057850;28;20074;-66
2023/04/26 10:34:26;;;;;;;8.82;3.20;;;;;;;;;;5043403;28;20019;-66
2023/04/26 10:37:07;;;;;;;8.15;3.45;;;;;;;;;;5045091;28;20048;-66
2023/04/26 10:39:32;;;;;;;8.93;2.80;;;;;;;;;;5039793;28;20028;-67
2023/04/26 10:42:21;;;;;;;7.07;3.72;;;;;;;;;;5041739;28;20016;-66
2023/04/26 10:44:47;;;;;;;6.68;3.03;;;;;;;;;;5036946;28;20016;-66
2023/04/26 10:47:24;;;;;;;5.93;2.97;;;;;;;;;;5049954;28;20024;-66
2023/04/26 10:49:50;;;;;;;5.43;3.22;;;;;;;;;;5048831;28;20032;-66
2023/04/26 10:52:18;;;;;;;5.53;2.85;;;;;;;;;;5050540;28;20020;-68
2023/04/26 10:54:57;;;;;;;9.35;2.78;;;;;;;;;;5045232;28;20016;-67
2023/04/26 10:57:23;;;;;;;10.88;2.63;;;;;;;;;;5047982;28;20078;-67
2023/04/26 11:00:13;;;;;;;10.63;3.05;;;;;;;;;;5047364;28;20036;-69
2023/04/26 11:02:45;;;;;;;3.92;2.40;;;;;;;;;;5043423;28;20115;-68
2023/04/26 11:05:11;;;;;;;7.85;2.88;;;;;;;;;;5042769;28;20032;-68
2023/04/26 11:07:36;;;;;;;5.20;2.60;;;;;;;;;;5042623;28;20067;-68
2023/04/26 11:10:02;;;;;;;5.55;3.33;;;;;;;;;;5044980;28;20882;-67
2023/04/26 11:12:27;;;;;;;6.57;3.47;;;;;;;;;;5044196;28;20016;-67
2023/04/26 11:14:53;;;;;;;7.72;3.30;;;;;;;;;;5040325;28;20132;-67
2023/04/26 11:17:19;;;;;;;6.10;2.85;;;;;;;;;;5039639;28;20035;-67
2023/04/26 11:19:45;;;;;;;10.45;3.28;;;;;;;;;;5050099;28;20028;-67
2023/04/26 11:22:11;;;;;;;7.55;3.38;;;;;;;;;;5046253;28;20031;-67
2023/04/26 11:24:37;;;;;;;11.00;3.60;;;;;;;;;;5046517;28;20023;-67
2023/04/26 11:27:09;;;;;;;6.60;3.42;;;;;;;;;;5047010;28;20441;-68
2023/04/26 11:29:34;;;;;;;12.88;3.20;;;;;;;;;;5044572;28;20030;-67
2023/04/26 11:31:59;;;;;;;8.73;3.20;;;;;;;;;;5073116;28;20028;-67
2023/04/26 11:34:35;;;;;;;8.32;2.92;;;;;;;;;;5068602;28;20404;-66
2023/04/26 11:37:01;;;;;;;5.72;2.60;;;;;;;;;;5051578;28;20052;-67
2023/04/26 11:39:27;;;;;;;13.13;3.53;;;;;;;;;;5059543;28;20034;-67
2023/04/26 11:41:55;;;;;;;9.82;2.92;;;;;;;;;;5045740;28;20020;-67
2023/04/26 11:44:20;;;;;;;5.18;2.95;;;;;;;;;;5026990;28;20811;-67
2023/04/26 11:46:49;;;;;;;14.93;3.15;;;;;;;;;;5045657;28;20055;-67
2023/04/26 11:49:15;;;;;;;8.65;3.67;;;;;;;;;;5031561;28;20021;-66
2023/04/26 11:51:40;;;;;;;9.90;3.38;;;;;;;;;;5041770;28;20569;-66
2023/04/26 11:54:06;;;;;;;7.70;3.10;;;;;;;;;;5051734;28;20032;-66
2023/04/26 11:56:31;;;;;;;5.50;2.70;;;;;;;;;;5055362;28;20097;-67
2023/04/26 11:58:58;;;;;;;4.20;2.53;;;;;;;;;;5050141;28;20036;-67
2023/04/26 12:01:23;;;;;;;4.97;2.78;;;;;;;;;;5046336;28;20031;-67
2023/04/26 12:03:52;;;;;;;7.13;3.25;;;;;;;;;;5046143;28;20032;-67
2023/04/26 12:06:18;;;;;;;11.73;3.67;;;;;;;;;;5039429;28;20024;-67
2023/04/26 12:08:50;;;;;;;6.63;3.70;;;;;;;;;;5042674;28;20032;-67
2023/04/26 12:11:16;;;;;;;5.53;2.63;;;;;;;;;;5044903;28;20210;-67
2023/04/26 12:13:41;;;;;;;9.02;3.63;;;;;;;;;;5045561;28;20877;-67
2023/04/26 12:16:08;;;;;;;7.30;3.35;;;;;;;;;;5045003;28;20031;-66
2023/04/26 12:18:33;;;;;;;6.50;2.80;;;;;;;;;;5036908;28;20055;-66
2023/04/26 12:20:59;;;;;;;5.95;3.42;;;;;;;;;;5045431;28;20900;-67
2023/04/26 12:23:25;;;;;;;5.95;3.33;;;;;;;;;;5051647;28;20056;-67
2023/04/26 12:25:52;;;;;;;4.55;2.55;;;;;;;;;;5029954;28;20086;-67
2023/04/26 12:28:17;;;;;;;7.53;3.40;;;;;;;;;;5047424;28;20135;-66
2023/04/26 12:30:43;;;;;;;7.95;3.58;;;;;;;;;;5050263;28;20766;-66
2023/04/26 12:33:08;;;;;;;8.50;3.40;;;;;;;;;;5053952;28;20489;-67
2023/04/26 12:35:34;;;;;;;6.68;3.10;;;;;;;;;;5051002;28;20062;-67
2023/04/26 12:38:00;;;;;;;8.85;3.58;;;;;;;;;;5061568;28;20477;-65
2023/04/26 12:40:26;;;;;;;5.60;3.20;;;;;;;;;;5060529;28;20044;-65
2023/04/26 12:42:51;;;;;;;6.03;2.85;;;;;;;;;;5075423;28;20374;-66
2023/04/26 12:45:18;;;;;;;7.05;3.72;;;;;;;;;;5051147;28;20925;-66
2023/04/26 12:47:46;;;;;;;6.57;3.35;;;;;;;;;;5067742;28;20032;-66
2023/04/26 12:50:11;;;;;;;8.25;3.05;;;;;;;;;;5049172;28;20129;-66
2023/04/26 12:52:37;;;;;;;5.10;3.05;;;;;;;;;;5050209;28;20900;-67
2023/04/26 12:55:03;;;;;;;4.75;2.80;;;;;;;;;;5045495;28;20027;-67
2023/04/26 12:57:29;;;;;;;5.93;3.30;;;;;;;;;;5045546;28;20024;-66
2023/04/26 12:59:55;;;;;;;5.28;3.00;;;;;;;;;;5047525;28;20031;-66
2023/04/26 13:02:21;;;;;;;7.55;3.42;;;;;;;;;;5047668;28;20027;-67
2023/04/26 13:04:46;;;;;;;12.50;3.83;;;;;;;;;;5048022;28;20020;-66
2023/04/26 13:07:11;;;;;;;6.93;3.30;;;;;;;;;;5052795;28;20077;-66
2023/04/26 13:09:37;;;;;;;5.45;2.45;;;;;;;;;;5054815;28;20048;-66
2023/04/26 13:12:02;;;;;;;5.80;3.13;;;;;;;;;;5053499;28;20032;-66
2023/04/26 13:14:28;;;;;;;7.20;2.80;;;;;;;;;;5052655;28;20133;-66
2023/04/26 13:16:53;;;;;;;5.78;2.97;;;;;;;;;;5043584;28;20090;-66
2023/04/26 13:19:18;;;;;;;8.48;2.65;;;;;;;;;;5045769;28;20075;-66
2023/04/26 13:21:44;;;;;;;4.82;3.08;;;;;;;;;;5045899;28;20029;-67
2023/04/26 13:24:10;;;;;;;9.32;3.53;;;;;;;;;;5044370;28;20139;-66
2023/04/26 13:26:35;;;;;;;5.60;3.20;;;;;;;;;;5043531;28;20020;-66
2023/04/26 13:29:00;;;;;;;6.28;3.70;;;;;;;;;;5034426;28;20139;-67
2023/04/26 13:31:26;;;;;;;8.82;3.75;;;;;;;;;;5055888;28;20027;-67
2023/04/26 13:33:51;;;;;;;6.63;3.63;;;;;;;;;;5058121;28;20024;-67
2023/04/26 13:36:16;;;;;;;10.32;4.10;;;;;;;;;;5046384;28;20123;-67
2023/04/26 13:38:42;;;;;;;5.57;3.50;;;;;;;;;;5044724;28;20805;-71
2023/04/26 13:41:10;;;;;;;4.63;2.65;;;;;;;;;;5035035;28;20058;-66
2023/04/26 13:43:35;;;;;;;6.82;3.83;;;;;;;;;;5039261;28;20027;-67
2023/04/26 13:46:00;;;;;;;8.38;3.45;;;;;;;;;;5048085;28;20139;-67
2023/04/26 13:48:26;;;;;;;6.38;3.70;;;;;;;;;;5046580;28;20866;-66
2023/04/26 13:50:51;;;;;;;7.90;3.28;;;;;;;;;;5046614;28;20023;-66
2023/04/26 13:53:18;;;;;;;5.75;3.30;;;;;;;;;;5032707;28;20050;-67
2023/04/26 13:55:43;;;;;;;6.20;2.97;;;;;;;;;;5048130;28;20039;-67
2023/04/26 13:58:09;;;;;;;6.60;3.92;;;;;;;;;;5052859;28;20024;-66
2023/04/26 14:00:34;;;;;;;7.40;2.90;;;;;;;;;;5043098;28;20040;-64
2023/04/26 14:02:59;;;;;;;9.23;3.67;;;;;;;;;;5044769;28;20035;-63
2023/04/26 14:05:25;;;;;;;7.03;3.60;;;;;;;;;;5039865;28;20128;-63
2023/04/26 14:07:50;;;;;;;14.95;3.80;;;;;;;;;;5045601;28;20845;-64
2023/04/26 14:10:15;;;;;;;7.72;3.42;;;;;;;;;;5032297;28;20026;-65
2023/04/26 14:12:41;;;;;;;10.43;4.05;;;;;;;;;;5040933;28;20135;-66
2023/04/26 14:15:06;;;;;;;7.82;4.03;;;;;;;;;;5044696;28;20754;-67
2023/04/26 14:17:32;;;;;;;8.65;3.70;;;;;;;;;;5041192;28;20051;-66
2023/04/26 14:19:57;;;;;;;9.10;3.80;;;;;;;;;;5045307;28;20032;-68
2023/04/26 14:22:22;;;;;;;9.50;3.67;;;;;;;;;;5047249;28;20830;-68
2023/04/26 14:24:47;;;;;;;6.05;4.10;;;;;;;;;;5043727;28;20027;-66
2023/04/26 14:27:13;;;;;;;7.03;3.17;;;;;;;;;;5040779;28;20883;-66